sensor_id;sensor_type;location;lat;lon;timestamp;P1;durP1;ratioP1;P2;durP2;ratioP2
10801;SDS011;5453;50.852;7.102;2023-05-07T00:02:31;1.85;;;1.48;;
10801;SDS011;5453;50.852;7.102;2023-05-07T00:05:03;2.38;;;1.50;;
10801;SDS011;5453;50.852;7.102;2023-05-07T00:07:36;1.63;;;1.30;;
10801;SDS011;5453;50.852;7.102;2023-05-07T00:10:09;1.63;;;1.23;;
10801;SDS011;5453;50.852;7.102;2023-05-07T00:12:43;1.48;;;1.23;;
10801;SDS011;5453;50.852;7.102;2023-05-07T00:15:15;1.80;;;1.40;;
10801;SDS011;5453;50.852;7.102;2023-05-07T00:17:48;1.58;;;1.13;;
10801;SDS011;5453;50.852;7.102;2023-05-07T00:20:20;1.70;;;1.35;;
10801;SDS011;5453;50.852;7.102;2023-05-07T00:22:52;2.13;;;1.60;;
10801;SDS011;5453;50.852;7.102;2023-05-07T00:25:24;3.85;;;1.60;;
10801;SDS011;5453;50.852;7.102;2023-05-07T00:27:57;1.70;;;1.60;;
10801;SDS011;5453;50.852;7.102;2023-05-07T00:30:33;2.20;;;1.65;;
10801;SDS011;5453;50.852;7.102;2023-05-07T00:33:06;1.55;;;1.45;;
10801;SDS011;5453;50.852;7.102;2023-05-07T00:35:38;2.03;;;1.55;;
10801;SDS011;5453;50.852;7.102;2023-05-07T00:38:10;2.10;;;1.60;;
10801;SDS011;5453;50.852;7.102;2023-05-07T00:40:42;2.03;;;1.63;;
10801;SDS011;5453;50.852;7.102;2023-05-07T00:43:16;1.63;;;1.33;;
10801;SDS011;5453;50.852;7.102;2023-05-07T00:45:49;1.73;;;1.40;;
10801;SDS011;5453;50.852;7.102;2023-05-07T00:48:21;1.95;;;1.50;;
10801;SDS011;5453;50.852;7.102;2023-05-07T00:50:54;2.08;;;1.30;;
10801;SDS011;5453;50.852;7.102;2023-05-07T00:53:27;1.67;;;1.20;;
10801;SDS011;5453;50.852;7.102;2023-05-07T00:56:00;1.77;;;1.48;;
10801;SDS011;5453;50.852;7.102;2023-05-07T00:58:34;2.15;;;1.52;;
10801;SDS011;5453;50.852;7.102;2023-05-07T01:01:06;1.70;;;1.23;;
10801;SDS011;5453;50.852;7.102;2023-05-07T01:03:38;1.42;;;1.30;;
10801;SDS011;5453;50.852;7.102;2023-05-07T01:06:11;1.80;;;1.33;;
10801;SDS011;5453;50.852;7.102;2023-05-07T01:08:46;2.30;;;1.25;;
10801;SDS011;5453;50.852;7.102;2023-05-07T01:11:20;1.98;;;1.45;;
10801;SDS011;5453;50.852;7.102;2023-05-07T01:13:54;1.70;;;1.33;;
10801;SDS011;5453;50.852;7.102;2023-05-07T01:16:26;1.73;;;1.23;;
10801;SDS011;5453;50.852;7.102;2023-05-07T01:18:58;1.60;;;1.30;;
10801;SDS011;5453;50.852;7.102;2023-05-07T01:21:32;1.35;;;1.25;;
10801;SDS011;5453;50.852;7.102;2023-05-07T01:24:08;1.88;;;1.40;;
10801;SDS011;5453;50.852;7.102;2023-05-07T01:26:41;1.52;;;1.30;;
10801;SDS011;5453;50.852;7.102;2023-05-07T01:29:14;2.42;;;1.40;;
10801;SDS011;5453;50.852;7.102;2023-05-07T01:31:47;1.70;;;1.40;;
10801;SDS011;5453;50.852;7.102;2023-05-07T01:34:22;1.35;;;1.25;;
10801;SDS011;5453;50.852;7.102;2023-05-07T01:36:55;1.92;;;1.35;;
10801;SDS011;5453;50.852;7.102;2023-05-07T01:39:31;1.38;;;1.23;;
10801;SDS011;5453;50.852;7.102;2023-05-07T01:42:03;1.30;;;1.20;;
10801;SDS011;5453;50.852;7.102;2023-05-07T01:44:35;1.40;;;1.30;;
10801;SDS011;5453;50.852;7.102;2023-05-07T01:47:08;2.00;;;1.52;;
10801;SDS011;5453;50.852;7.102;2023-05-07T01:49:41;2.10;;;1.90;;
10801;SDS011;5453;50.852;7.102;2023-05-07T01:52:14;1.52;;;1.30;;
10801;SDS011;5453;50.852;7.102;2023-05-07T01:54:47;1.70;;;1.42;;
10801;SDS011;5453;50.852;7.102;2023-05-07T01:57:19;1.30;;;1.20;;
10801;SDS011;5453;50.852;7.102;2023-05-07T01:59:52;2.25;;;1.60;;
10801;SDS011;5453;50.852;7.102;2023-05-07T02:02:24;2.92;;;1.50;;
10801;SDS011;5453;50.852;7.102;2023-05-07T02:04:58;1.73;;;1.40;;
10801;SDS011;5453;50.852;7.102;2023-05-07T02:07:31;1.90;;;1.50;;
10801;SDS011;5453;50.852;7.102;2023-05-07T02:10:06;2.42;;;1.75;;
10801;SDS011;5453;50.852;7.102;2023-05-07T02:12:38;1.63;;;1.33;;
10801;SDS011;5453;50.852;7.102;2023-05-07T02:15:11;1.70;;;1.20;;
10801;SDS011;5453;50.852;7.102;2023-05-07T02:17:57;1.80;;;1.20;;
10801;SDS011;5453;50.852;7.102;2023-05-07T02:20:31;1.45;;;1.33;;
10801;SDS011;5453;50.852;7.102;2023-05-07T02:23:03;1.85;;;1.63;;
10801;SDS011;5453;50.852;7.102;2023-05-07T02:25:37;1.40;;;1.20;;
10801;SDS011;5453;50.852;7.102;2023-05-07T02:28:09;1.85;;;1.45;;
10801;SDS011;5453;50.852;7.102;2023-05-07T02:30:52;1.83;;;1.40;;
10801;SDS011;5453;50.852;7.102;2023-05-07T02:33:25;2.60;;;1.73;;
10801;SDS011;5453;50.852;7.102;2023-05-07T02:36:04;2.55;;;1.75;;
10801;SDS011;5453;50.852;7.102;2023-05-07T02:38:39;2.35;;;1.40;;
10801;SDS011;5453;50.852;7.102;2023-05-07T02:41:13;1.65;;;1.30;;
10801;SDS011;5453;50.852;7.102;2023-05-07T02:43:45;1.75;;;1.55;;
10801;SDS011;5453;50.852;7.102;2023-05-07T02:46:17;2.28;;;1.30;;
10801;SDS011;5453;50.852;7.102;2023-05-07T02:48:55;2.15;;;1.48;;
10801;SDS011;5453;50.852;7.102;2023-05-07T02:51:30;2.15;;;1.23;;
10801;SDS011;5453;50.852;7.102;2023-05-07T02:54:05;2.05;;;1.17;;
10801;SDS011;5453;50.852;7.102;2023-05-07T02:56:39;1.98;;;1.50;;
10801;SDS011;5453;50.852;7.102;2023-05-07T02:59:11;1.48;;;1.13;;
10801;SDS011;5453;50.852;7.102;2023-05-07T03:01:45;1.77;;;1.35;;
10801;SDS011;5453;50.852;7.102;2023-05-07T03:04:19;1.40;;;1.30;;
10801;SDS011;5453;50.852;7.102;2023-05-07T03:06:51;1.95;;;1.13;;
10801;SDS011;5453;50.852;7.102;2023-05-07T03:09:23;2.17;;;1.30;;
10801;SDS011;5453;50.852;7.102;2023-05-07T03:11:58;1.77;;;1.42;;
10801;SDS011;5453;50.852;7.102;2023-05-07T03:14:32;1.80;;;1.15;;
10801;SDS011;5453;50.852;7.102;2023-05-07T03:17:04;3.05;;;1.23;;
10801;SDS011;5453;50.852;7.102;2023-05-07T03:19:36;1.65;;;1.38;;
10801;SDS011;5453;50.852;7.102;2023-05-07T03:22:08;1.70;;;1.35;;
10801;SDS011;5453;50.852;7.102;2023-05-07T03:24:40;2.20;;;1.55;;
10801;SDS011;5453;50.852;7.102;2023-05-07T03:27:14;2.38;;;1.40;;
10801;SDS011;5453;50.852;7.102;2023-05-07T03:29:47;1.60;;;1.23;;
10801;SDS011;5453;50.852;7.102;2023-05-07T03:32:19;1.70;;;1.38;;
10801;SDS011;5453;50.852;7.102;2023-05-07T03:34:52;1.30;;;1.10;;
10801;SDS011;5453;50.852;7.102;2023-05-07T03:37:25;1.17;;;1.00;;
10801;SDS011;5453;50.852;7.102;2023-05-07T03:39:57;1.42;;;1.17;;
10801;SDS011;5453;50.852;7.102;2023-05-07T03:42:32;1.35;;;1.20;;
10801;SDS011;5453;50.852;7.102;2023-05-07T03:45:04;2.00;;;1.33;;
10801;SDS011;5453;50.852;7.102;2023-05-07T03:47:38;2.25;;;1.23;;
10801;SDS011;5453;50.852;7.102;2023-05-07T03:50:12;2.10;;;1.55;;
10801;SDS011;5453;50.852;7.102;2023-05-07T03:52:44;2.10;;;1.33;;
10801;SDS011;5453;50.852;7.102;2023-05-07T03:55:20;1.65;;;1.30;;
10801;SDS011;5453;50.852;7.102;2023-05-07T03:57:58;2.72;;;1.60;;
10801;SDS011;5453;50.852;7.102;2023-05-07T04:00:32;1.90;;;1.70;;
10801;SDS011;5453;50.852;7.102;2023-05-07T04:03:13;1.90;;;1.50;;
10801;SDS011;5453;50.852;7.102;2023-05-07T04:08:27;1.70;;;1.38;;
10801;SDS011;5453;50.852;7.102;2023-05-07T04:10:59;1.52;;;1.25;;
10801;SDS011;5453;50.852;7.102;2023-05-07T04:16:09;1.98;;;1.23;;
10801;SDS011;5453;50.852;7.102;2023-05-07T04:18:42;2.15;;;1.50;;
10801;SDS011;5453;50.852;7.102;2023-05-07T04:21:14;1.50;;;1.30;;
10801;SDS011;5453;50.852;7.102;2023-05-07T04:23:48;1.60;;;1.15;;
10801;SDS011;5453;50.852;7.102;2023-05-07T04:26:20;1.52;;;1.27;;
10801;SDS011;5453;50.852;7.102;2023-05-07T04:28:55;2.08;;;1.10;;
10801;SDS011;5453;50.852;7.102;2023-05-07T04:31:28;1.65;;;1.20;;
10801;SDS011;5453;50.852;7.102;2023-05-07T04:34:00;2.05;;;1.10;;
10801;SDS011;5453;50.852;7.102;2023-05-07T04:36:32;1.35;;;1.25;;
10801;SDS011;5453;50.852;7.102;2023-05-07T04:39:09;1.50;;;1.20;;
10801;SDS011;5453;50.852;7.102;2023-05-07T04:41:43;1.40;;;1.25;;
10801;SDS011;5453;50.852;7.102;2023-05-07T04:44:17;1.92;;;1.30;;
10801;SDS011;5453;50.852;7.102;2023-05-07T04:46:49;3.05;;;1.50;;
10801;SDS011;5453;50.852;7.102;2023-05-07T04:49:22;1.60;;;1.30;;
10801;SDS011;5453;50.852;7.102;2023-05-07T04:51:56;1.90;;;1.40;;
10801;SDS011;5453;50.852;7.102;2023-05-07T04:54:28;1.67;;;1.40;;
10801;SDS011;5453;50.852;7.102;2023-05-07T04:57:02;1.45;;;1.23;;
10801;SDS011;5453;50.852;7.102;2023-05-07T04:59:37;1.70;;;1.33;;
10801;SDS011;5453;50.852;7.102;2023-05-07T05:02:09;1.73;;;1.48;;
10801;SDS011;5453;50.852;7.102;2023-05-07T05:04:42;2.35;;;1.50;;
10801;SDS011;5453;50.852;7.102;2023-05-07T05:07:15;1.40;;;1.27;;
10801;SDS011;5453;50.852;7.102;2023-05-07T05:09:47;1.67;;;1.33;;
10801;SDS011;5453;50.852;7.102;2023-05-07T05:12:19;2.05;;;1.38;;
10801;SDS011;5453;50.852;7.102;2023-05-07T05:14:52;1.73;;;1.25;;
10801;SDS011;5453;50.852;7.102;2023-05-07T05:17:25;1.52;;;1.13;;
10801;SDS011;5453;50.852;7.102;2023-05-07T05:19:57;1.77;;;1.20;;
10801;SDS011;5453;50.852;7.102;2023-05-07T05:22:29;1.45;;;1.10;;
10801;SDS011;5453;50.852;7.102;2023-05-07T05:25:03;1.90;;;1.33;;
10801;SDS011;5453;50.852;7.102;2023-05-07T05:27:36;2.70;;;1.70;;
10801;SDS011;5453;50.852;7.102;2023-05-07T05:30:11;2.25;;;1.50;;
10801;SDS011;5453;50.852;7.102;2023-05-07T05:32:45;2.75;;;1.67;;
10801;SDS011;5453;50.852;7.102;2023-05-07T05:35:17;1.75;;;1.25;;
10801;SDS011;5453;50.852;7.102;2023-05-07T05:37:49;1.67;;;1.35;;
10801;SDS011;5453;50.852;7.102;2023-05-07T05:40:22;2.92;;;1.42;;
10801;SDS011;5453;50.852;7.102;2023-05-07T05:42:55;2.80;;;1.30;;
10801;SDS011;5453;50.852;7.102;2023-05-07T05:45:29;3.33;;;1.40;;
10801;SDS011;5453;50.852;7.102;2023-05-07T05:48:01;1.60;;;1.30;;
10801;SDS011;5453;50.852;7.102;2023-05-07T05:50:34;2.70;;;1.33;;
10801;SDS011;5453;50.852;7.102;2023-05-07T05:53:07;1.70;;;1.30;;
10801;SDS011;5453;50.852;7.102;2023-05-07T05:55:39;1.83;;;1.50;;
10801;SDS011;5453;50.852;7.102;2023-05-07T05:58:12;1.55;;;1.20;;
10801;SDS011;5453;50.852;7.102;2023-05-07T06:00:50;1.40;;;1.10;;
10801;SDS011;5453;50.852;7.102;2023-05-07T06:03:25;1.42;;;1.20;;
10801;SDS011;5453;50.852;7.102;2023-05-07T06:05:58;2.63;;;1.42;;
10801;SDS011;5453;50.852;7.102;2023-05-07T06:08:31;1.58;;;1.40;;
10801;SDS011;5453;50.852;7.102;2023-05-07T06:11:04;2.33;;;1.23;;
10801;SDS011;5453;50.852;7.102;2023-05-07T06:13:39;2.40;;;1.42;;
10801;SDS011;5453;50.852;7.102;2023-05-07T06:16:13;1.42;;;1.10;;
10801;SDS011;5453;50.852;7.102;2023-05-07T06:18:47;1.45;;;1.10;;
10801;SDS011;5453;50.852;7.102;2023-05-07T06:21:20;2.58;;;1.20;;
10801;SDS011;5453;50.852;7.102;2023-05-07T06:23:52;2.55;;;1.40;;
10801;SDS011;5453;50.852;7.102;2023-05-07T06:26:25;2.60;;;1.42;;
10801;SDS011;5453;50.852;7.102;2023-05-07T06:28:57;1.55;;;1.20;;
10801;SDS011;5453;50.852;7.102;2023-05-07T06:31:31;1.40;;;1.30;;
10801;SDS011;5453;50.852;7.102;2023-05-07T06:34:07;1.30;;;1.17;;
10801;SDS011;5453;50.852;7.102;2023-05-07T06:36:42;2.63;;;1.30;;
10801;SDS011;5453;50.852;7.102;2023-05-07T06:39:43;1.65;;;1.23;;
10801;SDS011;5453;50.852;7.102;2023-05-07T06:42:15;1.35;;;1.25;;
10801;SDS011;5453;50.852;7.102;2023-05-07T06:44:50;1.27;;;0.98;;
10801;SDS011;5453;50.852;7.102;2023-05-07T06:47:25;1.17;;;1.05;;
10801;SDS011;5453;50.852;7.102;2023-05-07T06:49:58;1.60;;;1.15;;
10801;SDS011;5453;50.852;7.102;2023-05-07T06:52:34;1.40;;;0.90;;
10801;SDS011;5453;50.852;7.102;2023-05-07T06:57:42;1.50;;;1.40;;
10801;SDS011;5453;50.852;7.102;2023-05-07T07:00:14;1.90;;;1.30;;
10801;SDS011;5453;50.852;7.102;2023-05-07T07:02:54;2.50;;;0.93;;
10801;SDS011;5453;50.852;7.102;2023-05-07T07:05:29;1.58;;;0.93;;
10801;SDS011;5453;50.852;7.102;2023-05-07T07:08:02;1.70;;;1.05;;
10801;SDS011;5453;50.852;7.102;2023-05-07T07:10:35;2.58;;;1.58;;
10801;SDS011;5453;50.852;7.102;2023-05-07T07:13:07;1.77;;;1.05;;
10801;SDS011;5453;50.852;7.102;2023-05-07T07:15:39;1.52;;;1.02;;
10801;SDS011;5453;50.852;7.102;2023-05-07T07:18:13;2.50;;;1.15;;
10801;SDS011;5453;50.852;7.102;2023-05-07T07:20:47;2.13;;;1.15;;
10801;SDS011;5453;50.852;7.102;2023-05-07T07:23:19;2.63;;;1.25;;
10801;SDS011;5453;50.852;7.102;2023-05-07T07:25:52;2.72;;;1.40;;
10801;SDS011;5453;50.852;7.102;2023-05-07T07:28:24;2.28;;;1.13;;
10801;SDS011;5453;50.852;7.102;2023-05-07T07:30:57;1.17;;;1.08;;
10801;SDS011;5453;50.852;7.102;2023-05-07T07:33:30;1.77;;;1.17;;
10801;SDS011;5453;50.852;7.102;2023-05-07T07:36:03;2.53;;;1.27;;
10801;SDS011;5453;50.852;7.102;2023-05-07T07:38:37;2.50;;;1.10;;
10801;SDS011;5453;50.852;7.102;2023-05-07T07:41:09;2.03;;;1.13;;
10801;SDS011;5453;50.852;7.102;2023-05-07T07:43:41;1.23;;;1.05;;
10801;SDS011;5453;50.852;7.102;2023-05-07T07:46:13;2.80;;;1.23;;
10801;SDS011;5453;50.852;7.102;2023-05-07T07:48:48;2.35;;;1.30;;
10801;SDS011;5453;50.852;7.102;2023-05-07T07:51:20;2.10;;;1.20;;
10801;SDS011;5453;50.852;7.102;2023-05-07T07:53:52;1.95;;;1.17;;
10801;SDS011;5453;50.852;7.102;2023-05-07T07:56:24;1.67;;;1.10;;
10801;SDS011;5453;50.852;7.102;2023-05-07T07:58:57;2.35;;;1.35;;
10801;SDS011;5453;50.852;7.102;2023-05-07T08:01:29;1.45;;;0.98;;
10801;SDS011;5453;50.852;7.102;2023-05-07T08:04:04;1.40;;;1.02;;
10801;SDS011;5453;50.852;7.102;2023-05-07T08:06:39;1.38;;;1.27;;
10801;SDS011;5453;50.852;7.102;2023-05-07T08:09:13;1.75;;;1.27;;
10801;SDS011;5453;50.852;7.102;2023-05-07T08:11:45;2.20;;;1.20;;
10801;SDS011;5453;50.852;7.102;2023-05-07T08:14:18;1.45;;;1.20;;
10801;SDS011;5453;50.852;7.102;2023-05-07T08:16:52;2.05;;;1.13;;
10801;SDS011;5453;50.852;7.102;2023-05-07T08:19:25;1.52;;;1.30;;
10801;SDS011;5453;50.852;7.102;2023-05-07T08:21:58;2.25;;;1.50;;
10801;SDS011;5453;50.852;7.102;2023-05-07T08:24:30;2.20;;;1.25;;
10801;SDS011;5453;50.852;7.102;2023-05-07T08:27:03;2.17;;;1.30;;
10801;SDS011;5453;50.852;7.102;2023-05-07T08:29:35;2.15;;;1.10;;
10801;SDS011;5453;50.852;7.102;2023-05-07T08:32:07;2.72;;;1.10;;
10801;SDS011;5453;50.852;7.102;2023-05-07T08:34:41;1.48;;;1.27;;
10801;SDS011;5453;50.852;7.102;2023-05-07T08:37:13;2.30;;;1.33;;
10801;SDS011;5453;50.852;7.102;2023-05-07T08:39:45;1.58;;;1.27;;
10801;SDS011;5453;50.852;7.102;2023-05-07T08:42:24;1.38;;;1.00;;
10801;SDS011;5453;50.852;7.102;2023-05-07T08:44:56;1.42;;;1.13;;
10801;SDS011;5453;50.852;7.102;2023-05-07T08:47:34;2.90;;;1.40;;
10801;SDS011;5453;50.852;7.102;2023-05-07T08:50:16;1.60;;;1.13;;
10801;SDS011;5453;50.852;7.102;2023-05-07T08:55:23;2.00;;;1.27;;
10801;SDS011;5453;50.852;7.102;2023-05-07T08:57:55;1.20;;;1.00;;
10801;SDS011;5453;50.852;7.102;2023-05-07T09:00:27;2.42;;;1.23;;
10801;SDS011;5453;50.852;7.102;2023-05-07T09:03:00;1.98;;;1.00;;
10801;SDS011;5453;50.852;7.102;2023-05-07T09:05:34;1.42;;;1.10;;
10801;SDS011;5453;50.852;7.102;2023-05-07T09:08:08;3.03;;;1.10;;
10801;SDS011;5453;50.852;7.102;2023-05-07T09:10:42;1.15;;;1.00;;
10801;SDS011;5453;50.852;7.102;2023-05-07T09:13:14;1.10;;;1.00;;
10801;SDS011;5453;50.852;7.102;2023-05-07T09:15:48;1.80;;;1.10;;
10801;SDS011;5453;50.852;7.102;2023-05-07T09:18:21;1.88;;;1.08;;
10801;SDS011;5453;50.852;7.102;2023-05-07T09:20:57;1.85;;;0.95;;
10801;SDS011;5453;50.852;7.102;2023-05-07T09:23:29;1.60;;;1.00;;
10801;SDS011;5453;50.852;7.102;2023-05-07T09:26:02;1.73;;;1.15;;
10801;SDS011;5453;50.852;7.102;2023-05-07T09:28:38;1.30;;;1.13;;
10801;SDS011;5453;50.852;7.102;2023-05-07T09:31:13;3.75;;;1.30;;
10801;SDS011;5453;50.852;7.102;2023-05-07T09:33:46;1.30;;;0.93;;
10801;SDS011;5453;50.852;7.102;2023-05-07T09:36:19;1.17;;;1.00;;
10801;SDS011;5453;50.852;7.102;2023-05-07T09:38:52;1.48;;;1.08;;
10801;SDS011;5453;50.852;7.102;2023-05-07T09:41:26;2.08;;;1.23;;
10801;SDS011;5453;50.852;7.102;2023-05-07T09:44:08;2.15;;;1.25;;
10801;SDS011;5453;50.852;7.102;2023-05-07T09:46:46;1.30;;;1.08;;
10801;SDS011;5453;50.852;7.102;2023-05-07T09:49:30;1.38;;;1.13;;
10801;SDS011;5453;50.852;7.102;2023-05-07T09:52:11;1.55;;;1.13;;
10801;SDS011;5453;50.852;7.102;2023-05-07T09:54:52;2.30;;;1.00;;
10801;SDS011;5453;50.852;7.102;2023-05-07T09:57:29;2.13;;;1.30;;
10801;SDS011;5453;50.852;7.102;2023-05-07T10:00:07;2.08;;;1.30;;
10801;SDS011;5453;50.852;7.102;2023-05-07T10:02:51;1.30;;;1.20;;
10801;SDS011;5453;50.852;7.102;2023-05-07T10:05:30;1.20;;;1.10;;
10801;SDS011;5453;50.852;7.102;2023-05-07T10:08:06;1.48;;;1.10;;
10801;SDS011;5453;50.852;7.102;2023-05-07T10:10:42;1.52;;;1.08;;
10801;SDS011;5453;50.852;7.102;2023-05-07T10:13:17;1.75;;;1.00;;
10801;SDS011;5453;50.852;7.102;2023-05-07T10:15:55;1.33;;;1.02;;
10801;SDS011;5453;50.852;7.102;2023-05-07T10:18:32;1.67;;;1.10;;
10801;SDS011;5453;50.852;7.102;2023-05-07T10:21:15;1.88;;;1.20;;
10801;SDS011;5453;50.852;7.102;2023-05-07T10:23:53;1.73;;;1.13;;
10801;SDS011;5453;50.852;7.102;2023-05-07T10:26:33;2.40;;;1.10;;
10801;SDS011;5453;50.852;7.102;2023-05-07T10:29:11;1.02;;;0.98;;
10801;SDS011;5453;50.852;7.102;2023-05-07T10:31:49;3.20;;;0.95;;
10801;SDS011;5453;50.852;7.102;2023-05-07T10:34:29;1.23;;;0.95;;
10801;SDS011;5453;50.852;7.102;2023-05-07T10:37:20;0.98;;;0.93;;
10801;SDS011;5453;50.852;7.102;2023-05-07T10:39:55;1.77;;;0.90;;
10801;SDS011;5453;50.852;7.102;2023-05-07T10:42:28;1.33;;;0.90;;
10801;SDS011;5453;50.852;7.102;2023-05-07T10:45:11;0.90;;;0.90;;
10801;SDS011;5453;50.852;7.102;2023-05-07T10:48:05;1.73;;;1.00;;
10801;SDS011;5453;50.852;7.102;2023-05-07T10:50:39;1.30;;;0.98;;
10801;SDS011;5453;50.852;7.102;2023-05-07T10:53:21;1.40;;;0.90;;
10801;SDS011;5453;50.852;7.102;2023-05-07T10:56:27;1.33;;;1.00;;
10801;SDS011;5453;50.852;7.102;2023-05-07T10:59:36;1.17;;;0.90;;
10801;SDS011;5453;50.852;7.102;2023-05-07T11:02:31;1.48;;;0.70;;
10801;SDS011;5453;50.852;7.102;2023-05-07T11:05:45;1.10;;;1.00;;
10801;SDS011;5453;50.852;7.102;2023-05-07T11:08:29;1.33;;;1.05;;
10801;SDS011;5453;50.852;7.102;2023-05-07T11:11:48;1.55;;;1.00;;
10801;SDS011;5453;50.852;7.102;2023-05-07T11:20:09;1.30;;;1.02;;
10801;SDS011;5453;50.852;7.102;2023-05-07T11:22:48;1.10;;;1.00;;
10801;SDS011;5453;50.852;7.102;2023-05-07T11:25:48;1.52;;;0.98;;
10801;SDS011;5453;50.852;7.102;2023-05-07T11:28:27;1.73;;;1.00;;
10801;SDS011;5453;50.852;7.102;2023-05-07T11:31:06;1.17;;;1.05;;
10801;SDS011;5453;50.852;7.102;2023-05-07T11:33:39;1.20;;;1.10;;
10801;SDS011;5453;50.852;7.102;2023-05-07T11:36:18;1.63;;;1.08;;
10801;SDS011;5453;50.852;7.102;2023-05-07T11:38:52;1.10;;;1.00;;
10801;SDS011;5453;50.852;7.102;2023-05-07T11:41:33;2.72;;;0.90;;
10801;SDS011;5453;50.852;7.102;2023-05-07T11:44:09;1.20;;;1.00;;
10801;SDS011;5453;50.852;7.102;2023-05-07T11:46:42;1.30;;;0.90;;
10801;SDS011;5453;50.852;7.102;2023-05-07T11:49:16;1.65;;;1.20;;
10801;SDS011;5453;50.852;7.102;2023-05-07T11:51:50;2.17;;;1.00;;
10801;SDS011;5453;50.852;7.102;2023-05-07T11:54:23;0.82;;;0.82;;
10801;SDS011;5453;50.852;7.102;2023-05-07T11:56:56;2.13;;;1.30;;
10801;SDS011;5453;50.852;7.102;2023-05-07T11:59:30;1.67;;;1.20;;
10801;SDS011;5453;50.852;7.102;2023-05-07T12:02:13;1.10;;;1.00;;
10801;SDS011;5453;50.852;7.102;2023-05-07T12:04:46;1.17;;;0.90;;
10801;SDS011;5453;50.852;7.102;2023-05-07T12:07:18;1.67;;;0.90;;
10801;SDS011;5453;50.852;7.102;2023-05-07T12:09:51;1.00;;;0.90;;
10801;SDS011;5453;50.852;7.102;2023-05-07T12:12:25;2.53;;;1.05;;
10801;SDS011;5453;50.852;7.102;2023-05-07T12:15:00;2.03;;;0.93;;
10801;SDS011;5453;50.852;7.102;2023-05-07T12:20:07;1.55;;;1.08;;
10801;SDS011;5453;50.852;7.102;2023-05-07T12:22:42;0.90;;;0.90;;
10801;SDS011;5453;50.852;7.102;2023-05-07T12:25:18;1.30;;;1.00;;
10801;SDS011;5453;50.852;7.102;2023-05-07T12:27:52;1.27;;;1.00;;
10801;SDS011;5453;50.852;7.102;2023-05-07T12:30:26;1.20;;;1.10;;
10801;SDS011;5453;50.852;7.102;2023-05-07T12:35:32;2.47;;;1.00;;
10801;SDS011;5453;50.852;7.102;2023-05-07T12:38:09;1.27;;;1.10;;
10801;SDS011;5453;50.852;7.102;2023-05-07T12:43:21;1.20;;;1.00;;
10801;SDS011;5453;50.852;7.102;2023-05-07T12:46:00;1.35;;;1.00;;
10801;SDS011;5453;50.852;7.102;2023-05-07T12:48:33;1.40;;;1.02;;
10801;SDS011;5453;50.852;7.102;2023-05-07T12:51:08;1.63;;;1.15;;
10801;SDS011;5453;50.852;7.102;2023-05-07T12:53:43;1.27;;;0.98;;
10801;SDS011;5453;50.852;7.102;2023-05-07T12:56:16;0.95;;;0.90;;
10801;SDS011;5453;50.852;7.102;2023-05-07T12:58:50;1.20;;;1.10;;
10801;SDS011;5453;50.852;7.102;2023-05-07T13:01:28;1.10;;;1.00;;
10801;SDS011;5453;50.852;7.102;2023-05-07T13:04:02;1.98;;;0.82;;
10801;SDS011;5453;50.852;7.102;2023-05-07T13:06:37;1.10;;;1.00;;
10801;SDS011;5453;50.852;7.102;2023-05-07T13:09:10;1.60;;;1.13;;
10801;SDS011;5453;50.852;7.102;2023-05-07T13:11:43;1.30;;;1.17;;
10801;SDS011;5453;50.852;7.102;2023-05-07T13:14:15;1.63;;;1.17;;
10801;SDS011;5453;50.852;7.102;2023-05-07T13:16:54;1.30;;;1.10;;
10801;SDS011;5453;50.852;7.102;2023-05-07T13:19:26;2.17;;;1.40;;
10801;SDS011;5453;50.852;7.102;2023-05-07T13:21:59;2.22;;;1.10;;
10801;SDS011;5453;50.852;7.102;2023-05-07T13:24:31;1.27;;;1.08;;
10801;SDS011;5453;50.852;7.102;2023-05-07T13:27:04;1.13;;;1.02;;
10801;SDS011;5453;50.852;7.102;2023-05-07T13:29:36;1.63;;;1.10;;
10801;SDS011;5453;50.852;7.102;2023-05-07T13:32:10;2.15;;;1.40;;
10801;SDS011;5453;50.852;7.102;2023-05-07T13:34:42;1.17;;;1.05;;
10801;SDS011;5453;50.852;7.102;2023-05-07T13:37:16;1.23;;;1.13;;
10801;SDS011;5453;50.852;7.102;2023-05-07T13:39:49;2.17;;;1.00;;
10801;SDS011;5453;50.852;7.102;2023-05-07T13:42:21;3.38;;;1.50;;
10801;SDS011;5453;50.852;7.102;2023-05-07T13:44:53;1.63;;;1.40;;
10801;SDS011;5453;50.852;7.102;2023-05-07T13:47:29;1.40;;;1.30;;
10801;SDS011;5453;50.852;7.102;2023-05-07T13:50:02;2.03;;;1.30;;
10801;SDS011;5453;50.852;7.102;2023-05-07T13:52:37;1.67;;;1.00;;
10801;SDS011;5453;50.852;7.102;2023-05-07T13:55:10;1.10;;;1.00;;
10801;SDS011;5453;50.852;7.102;2023-05-07T13:57:44;1.23;;;1.10;;
10801;SDS011;5453;50.852;7.102;2023-05-07T14:00:17;1.63;;;1.17;;
10801;SDS011;5453;50.852;7.102;2023-05-07T14:02:52;1.40;;;1.23;;
10801;SDS011;5453;50.852;7.102;2023-05-07T14:05:26;1.80;;;1.50;;
10801;SDS011;5453;50.852;7.102;2023-05-07T14:07:59;1.67;;;1.15;;
10801;SDS011;5453;50.852;7.102;2023-05-07T14:10:35;1.40;;;1.30;;
10801;SDS011;5453;50.852;7.102;2023-05-07T14:13:07;1.90;;;1.33;;
10801;SDS011;5453;50.852;7.102;2023-05-07T14:15:41;1.30;;;1.20;;
10801;SDS011;5453;50.852;7.102;2023-05-07T14:18:18;2.10;;;1.25;;
10801;SDS011;5453;50.852;7.102;2023-05-07T14:20:50;1.92;;;1.08;;
10801;SDS011;5453;50.852;7.102;2023-05-07T14:23:27;2.42;;;1.23;;
10801;SDS011;5453;50.852;7.102;2023-05-07T14:25:59;2.33;;;1.30;;
10801;SDS011;5453;50.852;7.102;2023-05-07T14:28:34;2.15;;;1.30;;
10801;SDS011;5453;50.852;7.102;2023-05-07T14:31:09;2.25;;;1.27;;
10801;SDS011;5453;50.852;7.102;2023-05-07T14:33:43;1.85;;;1.65;;
10801;SDS011;5453;50.852;7.102;2023-05-07T14:36:18;1.95;;;1.17;;
10801;SDS011;5453;50.852;7.102;2023-05-07T14:38:56;2.42;;;1.35;;
10801;SDS011;5453;50.852;7.102;2023-05-07T14:41:30;2.65;;;1.50;;
10801;SDS011;5453;50.852;7.102;2023-05-07T14:44:03;1.95;;;1.48;;
10801;SDS011;5453;50.852;7.102;2023-05-07T14:46:36;2.47;;;1.35;;
10801;SDS011;5453;50.852;7.102;2023-05-07T14:49:11;2.10;;;1.40;;
10801;SDS011;5453;50.852;7.102;2023-05-07T14:51:47;2.88;;;1.45;;
10801;SDS011;5453;50.852;7.102;2023-05-07T14:54:19;1.85;;;1.08;;
10801;SDS011;5453;50.852;7.102;2023-05-07T14:56:52;1.92;;;1.23;;
10801;SDS011;5453;50.852;7.102;2023-05-07T14:59:25;1.88;;;1.30;;
10801;SDS011;5453;50.852;7.102;2023-05-07T15:01:58;1.52;;;1.15;;
10801;SDS011;5453;50.852;7.102;2023-05-07T15:04:32;1.33;;;1.20;;
10801;SDS011;5453;50.852;7.102;2023-05-07T15:07:05;1.80;;;1.17;;
10801;SDS011;5453;50.852;7.102;2023-05-07T15:09:38;1.23;;;1.02;;
10801;SDS011;5453;50.852;7.102;2023-05-07T15:12:10;1.80;;;1.13;;
10801;SDS011;5453;50.852;7.102;2023-05-07T15:14:43;1.30;;;1.20;;
10801;SDS011;5453;50.852;7.102;2023-05-07T15:17:17;2.40;;;1.35;;
10801;SDS011;5453;50.852;7.102;2023-05-07T15:19:50;1.65;;;1.10;;
10801;SDS011;5453;50.852;7.102;2023-05-07T15:22:23;2.30;;;1.30;;
10801;SDS011;5453;50.852;7.102;2023-05-07T15:24:56;2.53;;;1.48;;
10801;SDS011;5453;50.852;7.102;2023-05-07T15:27:28;2.22;;;1.50;;
10801;SDS011;5453;50.852;7.102;2023-05-07T15:30:01;2.22;;;1.30;;
10801;SDS011;5453;50.852;7.102;2023-05-07T15:32:35;3.08;;;1.30;;
10801;SDS011;5453;50.852;7.102;2023-05-07T15:35:10;2.78;;;1.50;;
10801;SDS011;5453;50.852;7.102;2023-05-07T15:40:14;2.42;;;1.20;;
10801;SDS011;5453;50.852;7.102;2023-05-07T15:42:47;2.25;;;1.50;;
10801;SDS011;5453;50.852;7.102;2023-05-07T15:45:20;1.23;;;1.13;;
10801;SDS011;5453;50.852;7.102;2023-05-07T15:47:53;2.25;;;1.05;;
10801;SDS011;5453;50.852;7.102;2023-05-07T15:50:26;1.05;;;0.95;;
10801;SDS011;5453;50.852;7.102;2023-05-07T15:52:59;1.35;;;0.90;;
10801;SDS011;5453;50.852;7.102;2023-05-07T15:55:31;1.20;;;0.95;;
10801;SDS011;5453;50.852;7.102;2023-05-07T15:58:04;0.93;;;0.80;;
10801;SDS011;5453;50.852;7.102;2023-05-07T16:00:37;0.82;;;0.82;;
10801;SDS011;5453;50.852;7.102;2023-05-07T16:03:11;0.93;;;0.82;;
10801;SDS011;5453;50.852;7.102;2023-05-07T16:05:45;1.42;;;0.95;;
10801;SDS011;5453;50.852;7.102;2023-05-07T16:08:17;1.65;;;1.02;;
10801;SDS011;5453;50.852;7.102;2023-05-07T16:10:50;0.75;;;0.75;;
10801;SDS011;5453;50.852;7.102;2023-05-07T16:13:24;0.70;;;0.70;;